Thursday, August 21, 2014
14:09 UTC
  |  Log In   |  Register Free
Airport Search:

Fort Smith Regional Airport
(KFSM)

FAA data valid effective July 24, 2014 until September 18, 2014 (unless otherwise noted).

 
 
 
 
 
 
 
 
 
 
 
 
 
 

Current Aviation Weather for Fort Smith Regional Airport (KFSM)

The most recent METAR observation for KFSM was updated at: 1753 UTC
METAR Summary (Translated METAR)
KFSM
281753Z 30008KT 10SM CLR 31/14 A3015 RMK AO2 SLP203 T03060139 10306 20222 58008
KJSV
(22.2 nm NW from KFSM)
281835Z AUTO 31007KT 10SM CLR 30/12 A3017 RMK AO2
TAF Summary (Translated TAF)
KFSM
211120Z 2112/2212 06004KT P6SM SKC FM211700 21013KT P6SM SCT250 FM220300 07004KT P6SM SCT250
  Airport Weather Conditions for KFSM

 Current Weather at FSM
77° F
Fair
East winds at 3.5 mph
FSM NOAA Radar

Pressure: 30.04 in
Humidity: 88%
Wind: East at 3.5 MPH (3 KT)
Dew Point: 73.0°F
Visibility: 10.00 mi


Airport Weather Forecast for KFSM

Translated METAR and TAF for KFSM
Translated METAR for KFSM (1403 UTC 21 August 2014)
found at http://aviationweather.gov/adds/metars/
 
METAR text: KFSM 211353Z 19007KT 10SM CLR 28/22 A3004 RMK AO2 SLP165 T02780222
Conditions at: KFSM (FORT SMITH , AR, US) observed 1353 UTC 21 August 2014
Temperature: 27.8°C (82°F)
Dewpoint: 22.2°C (72°F) [RH = 72%]
Pressure (altimeter): 30.04 inches Hg (1017.4 mb)
[Sea-level pressure: 1016.5 mb]
Winds: from the S (190 degrees) at 8 MPH (7 knots; 3.6 m/s)
Visibility: 10 or more miles (16+ km)
Ceiling: at least 12,000 feet AGL
Clouds: sky clear below 12,000 feet AGL
Weather: no significant weather observed at this time
Translated TAF for KFSM
Forecast for: KFSM (FORT SMITH , AR, US)
TAF Text: KFSM 211120Z 2112/2212 06004KT P6SM SKC
Forecast period: 1200 to 1700 UTC 21 August 2014
Forecast type: FROM: standard forecast or significant change
Winds: from the ENE (60 degrees) at 5 MPH (4 knots; 2.1 m/s)
Visibility: 6 or more miles (10+ km)
Clouds: clear skies
Weather: no significant weather forecast for this period
TAF Text: FM211700 21013KT P6SM SCT250
Forecast period: 1700 UTC 21 August 2014 to 0300 UTC 22 August 2014
Forecast type: FROM: standard forecast or significant change
Winds: from the SSW (210 degrees) at 15 MPH (13 knots; 6.8 m/s)
Visibility: 6 or more miles (10+ km)
Clouds: scattered clouds at 25000 feet AGL
Weather: no significant weather forecast for this period
TAF Text: FM220300 07004KT P6SM SCT250
Forecast period: 0300 to 1200 UTC 22 August 2014
Forecast type: FROM: standard forecast or significant change
Winds: from the ENE (70 degrees) at 5 MPH (4 knots; 2.1 m/s)
Visibility: 6 or more miles (10+ km)
Clouds: scattered clouds at 25000 feet AGL
Weather: no significant weather forecast for this period

Find All Airport Services Find A Hotel Find A Rental Car Find A Golf Course Find A Restaurant $100 Hamburger



FBO's on the Field
FBO Company Facility Photos Services Transportation Aviation Fuel Prices: Prices include tax
Catering Weather Repair Courtesy Rental Type 100LL JetA JetA+ MOGAS 8087
 
TAC Air - FSM

This FBO has not yet been rated
FS:Independent
Last Updated: Aug-07
Login to update fuel prices
SS:
Contact TAC Air - FSMMore FBO Information
 
Add another FBO Facility Photos Catering Weather Repair Courtesy Rental Type 100LL JetA JetA+ MOGAS 8087
Services Transportation Aviation Fuel Prices: Prices include tax


GlobalAir.com Airport Resource Center model-print
model-print
model-print
model-print